Laura Elizabeth — WV9611 — position and weather

sailwx.info

Track history (hours):
 
Tides and Currents Weather Stations Pressure Air Temp Water Temp Dewpoint Dewpoint Depression Visibility Wind Speed Wind Dir Waves Ship Positions

Laura Elizabeth

Owner: Southern Towing Company, LLC, MEMPHIS, TN. More information available from US FCC via Universal Licensing System and Coast Guard Vessel Documentation Center.

Last reported at 2018-Apr-29 11:50 UTC. Time now 2018-May-21 22:39 UTC.
Position N 39°08' W 090°42'.
Warning: this ship's position is 22 days out of date.

Length 40 m; draft 9 m.

Type: Towing. MMSI: 366917140.

Date/timePositionNaut miles runAvg speedWind from/ knotsBaromVisibWave heightAir tempDewpointWater temp
2018-Apr-29 11:50N 39°08' W 090°42'1 3.5
2018-Apr-29 11:30N 39°07' W 090°41'3 3.3
2018-Apr-29 10:28N 39°04' W 090°42'1 3.1
2018-Apr-29 10:00N 39°02' W 090°43'2 3.5
2018-Apr-29 09:30N 39°01' W 090°42'1 1.4
2018-Apr-29 09:00N 39°00' W 090°41'0 0.2
2018-Apr-29 08:30N 39°00' W 090°41'0 0.0
2018-Apr-29 08:00N 39°00' W 090°41'0 0.4
2018-Apr-29 07:30N 38°60' W 090°41'2 3.5
2018-Apr-29 06:57N 38°58' W 090°40'1 1.3
2018-Apr-29 06:29N 38°58' W 090°40'0 0.2
2018-Apr-29 06:00N 38°57' W 090°40'2 3.5
2018-Apr-29 05:30N 38°56' W 090°40'2 3.7
2018-Apr-29 05:00N 38°54' W 090°38'2 3.8
2018-Apr-29 04:30N 38°53' W 090°37'2 3.7
2018-Apr-29 04:00N 38°52' W 090°35'2 3.9
2018-Apr-29 03:30N 38°52' W 090°33'2 3.7
2018-Apr-29 03:00N 38°54' W 090°31'2 3.6
2018-Apr-29 02:30N 38°56' W 090°30'2 3.3
2018-Apr-29 02:00N 38°57' W 090°29'1 1.9
2018-Apr-29 01:30N 38°57' W 090°28'0 0.0
2018-Apr-29 01:00N 38°57' W 090°28'0 0.0
2018-Apr-29 00:30N 38°57' W 090°28'0 0.2
2018-Apr-29 00:00N 38°57' W 090°28'2 3.1
2018-Apr-28 23:30N 38°58' W 090°26'2 3.5
2018-Apr-28 23:00N 38°58' W 090°24'2 3.7
2018-Apr-28 22:30N 38°57' W 090°21'2 3.7
2018-Apr-28 22:00N 38°56' W 090°19'2 3.7
2018-Apr-28 21:30N 38°55' W 090°17'2 3.9
2018-Apr-28 21:00N 38°55' W 090°15'0 0.7
2018-Apr-28 20:30N 38°55' W 090°14'0 0.0
2018-Apr-28 20:00N 38°55' W 090°14'0 0.0
2018-Apr-28 19:30N 38°55' W 090°14'0 0.5
2018-Apr-28 19:00N 38°55' W 090°14'2 3.5
2018-Apr-28 18:30N 38°54' W 090°12'2 3.7
2018-Apr-28 18:00N 38°53' W 090°10'1 2.5
2018-Apr-28 17:30N 38°52' W 090°09'0 1.0
2018-Apr-28 17:00N 38°52' W 090°08'0 0.1
2018-Apr-28 16:30N 38°52' W 090°08'0 0.0
2018-Apr-28 16:00N 38°52' W 090°08'0 0.0
2018-Apr-28 15:30N 38°52' W 090°08'0 0.0
2018-Apr-28 15:00N 38°52' W 090°08'0 0.0
2018-Apr-28 14:30N 38°52' W 090°08'0 0.0
2018-Apr-28 14:00N 38°52' W 090°08'0 0.0
2018-Apr-28 13:30N 38°52' W 090°08'0 0.0
2018-Apr-28 13:00N 38°52' W 090°08'0 0.0
2018-Apr-28 12:30N 38°52' W 090°08'1 2.3
2018-Apr-28 12:00N 38°51' W 090°07'7 3.7
2018-Apr-28 10:15N 38°45' W 090°09'1 3.4
2018-Apr-28 10:00N 38°44' W 090°09'2 3.2
2018-Apr-28 09:30N 38°43' W 090°10'1 1.6
2018-Apr-28 09:00N 38°42' W 090°11'0 0.4
2018-Apr-28 08:30N 38°42' W 090°11'1 2.1
2018-Apr-28 08:00N 38°41' W 090°11'2 3.1
2018-Apr-28 07:30N 38°39' W 090°11'0 0.4
2018-Apr-28 06:59N 38°39' W 090°11'0 0.0
2018-Apr-28 06:30N 38°39' W 090°11'0 0.0
2018-Apr-28 06:00N 38°39' W 090°11'0 0.1
2018-Apr-28 05:30N 38°39' W 090°11'1 1.2
2018-Apr-28 05:00N 38°38' W 090°11'1 2.8
2018-Apr-28 04:30N 38°37' W 090°11'  
Track history (hours):
 
Tides and Currents Weather Stations Pressure Air Temp Water Temp Dewpoint Dewpoint Depression Visibility Wind Speed Wind Dir Waves Ship Positions

Laura Elizabeth

Owner: Southern Towing Company, LLC, MEMPHIS, TN. More information available from US FCC via Universal Licensing System and Coast Guard Vessel Documentation Center.

Last reported at 2018-Apr-29 11:50 UTC. Time now 2018-May-21 22:39 UTC.
Position N 39°08' W 090°42'.
Warning: this ship's position is 22 days out of date.

Length 40 m; draft 9 m.

Type: Towing. MMSI: 366917140.

Date/timePositionNaut miles runAvg speedWind from/ knotsBaromVisibWave heightAir tempDewpointWater temp
2018-Apr-29 11:50N 39°08' W 090°42'1 3.5
2018-Apr-29 11:30N 39°07' W 090°41'3 3.3
2018-Apr-29 10:28N 39°04' W 090°42'1 3.1
2018-Apr-29 10:00N 39°02' W 090°43'2 3.5
2018-Apr-29 09:30N 39°01' W 090°42'1 1.4
2018-Apr-29 09:00N 39°00' W 090°41'0 0.2
2018-Apr-29 08:30N 39°00' W 090°41'0 0.0
2018-Apr-29 08:00N 39°00' W 090°41'0 0.4
2018-Apr-29 07:30N 38°60' W 090°41'2 3.5
2018-Apr-29 06:57N 38°58' W 090°40'1 1.3
2018-Apr-29 06:29N 38°58' W 090°40'0 0.2
2018-Apr-29 06:00N 38°57' W 090°40'2 3.5
2018-Apr-29 05:30N 38°56' W 090°40'2 3.7
2018-Apr-29 05:00N 38°54' W 090°38'2 3.8
2018-Apr-29 04:30N 38°53' W 090°37'2 3.7
2018-Apr-29 04:00N 38°52' W 090°35'2 3.9
2018-Apr-29 03:30N 38°52' W 090°33'2 3.7
2018-Apr-29 03:00N 38°54' W 090°31'2 3.6
2018-Apr-29 02:30N 38°56' W 090°30'2 3.3
2018-Apr-29 02:00N 38°57' W 090°29'1 1.9
2018-Apr-29 01:30N 38°57' W 090°28'0 0.0
2018-Apr-29 01:00N 38°57' W 090°28'0 0.0
2018-Apr-29 00:30N 38°57' W 090°28'0 0.2
2018-Apr-29 00:00N 38°57' W 090°28'2 3.1
2018-Apr-28 23:30N 38°58' W 090°26'2 3.5
2018-Apr-28 23:00N 38°58' W 090°24'2 3.7
2018-Apr-28 22:30N 38°57' W 090°21'2 3.7
2018-Apr-28 22:00N 38°56' W 090°19'2 3.7
2018-Apr-28 21:30N 38°55' W 090°17'2 3.9
2018-Apr-28 21:00N 38°55' W 090°15'0 0.7
2018-Apr-28 20:30N 38°55' W 090°14'0 0.0
2018-Apr-28 20:00N 38°55' W 090°14'0 0.0
2018-Apr-28 19:30N 38°55' W 090°14'0 0.5
2018-Apr-28 19:00N 38°55' W 090°14'2 3.5
2018-Apr-28 18:30N 38°54' W 090°12'2 3.7
2018-Apr-28 18:00N 38°53' W 090°10'1 2.5
2018-Apr-28 17:30N 38°52' W 090°09'0 1.0
2018-Apr-28 17:00N 38°52' W 090°08'0 0.1
2018-Apr-28 16:30N 38°52' W 090°08'0 0.0
2018-Apr-28 16:00N 38°52' W 090°08'0 0.0
2018-Apr-28 15:30N 38°52' W 090°08'0 0.0
2018-Apr-28 15:00N 38°52' W 090°08'0 0.0
2018-Apr-28 14:30N 38°52' W 090°08'0 0.0
2018-Apr-28 14:00N 38°52' W 090°08'0 0.0
2018-Apr-28 13:30N 38°52' W 090°08'0 0.0
2018-Apr-28 13:00N 38°52' W 090°08'0 0.0
2018-Apr-28 12:30N 38°52' W 090°08'1 2.3
2018-Apr-28 12:00N 38°51' W 090°07'7 3.7
2018-Apr-28 10:15N 38°45' W 090°09'1 3.4
2018-Apr-28 10:00N 38°44' W 090°09'2 3.2
2018-Apr-28 09:30N 38°43' W 090°10'1 1.6
2018-Apr-28 09:00N 38°42' W 090°11'0 0.4
2018-Apr-28 08:30N 38°42' W 090°11'1 2.1
2018-Apr-28 08:00N 38°41' W 090°11'2 3.1
2018-Apr-28 07:30N 38°39' W 090°11'0 0.4
2018-Apr-28 06:59N 38°39' W 090°11'0 0.0
2018-Apr-28 06:30N 38°39' W 090°11'0 0.0
2018-Apr-28 06:00N 38°39' W 090°11'0 0.1
2018-Apr-28 05:30N 38°39' W 090°11'1 1.2
2018-Apr-28 05:00N 38°38' W 090°11'1 2.8
2018-Apr-28 04:30N 38°37' W 090°11'  

Dump ship's entire track history